JKG weather

Jönköping Airport
Jönköping, Jönköpings län, Sweden

Public forecast

Using degrees Celsius for public forecast. Weather courtesy of forecast.io.

METAR (pilot weather report)

Retrieved 2019/09/15 04:20 UTC (37 minutes ago):

ESGJ 150420Z AUTO 23019G31KT 9999 -RA FEW009/// OVC017/// 12/11 Q1004 RERA

TAF (pilot weather forecast)

Forecast is more than 12 hours old.

Retrieved 2015/05/01 23:06 UTC (4 years ago):

TAF TAF ESGJ 302359Z 3023/0101 CNL